Tiempo atmosférico en la estación meteorológica de Doña Mencia, Córdoba (650 m.)



Fecha
DESCASC
Temp. máxima en grados centígrados (hora)
DESCASC
Temp. mínima en grados centígrados (hora)
DESCASC
Temp. media en grados centígrados
DESCASC
Racha de viento máxima en m/sg (hora)
DESCASC
Velocidad máxima media en intervalos de 10 minutos(hora)
DESCASC
Precipitaciones diarias en mm
DESCASC
Precipitaciones de 00:00 a 06:00 en mm
DESCASC
Precipitaciones de 06:00 a 12:00 en mm
DESCASC
Precipitaciones de 12:00 a 18:00 en mm
DESCASC
Precipitaciones de 18:00 a 24:00 en mm
DESCASC
13-06-2019 27.2 (18:30) 13.9 (07:00) 20.6 10 (23:10) 5.56 (23:10) 0 0 0 0 0
12-06-2019 26.8 (16:40) 14.1 (06:20) 20.4 9.44 (18:30) 5 (18:30) 0 0 0 0 0
11-06-2019 26.4 (18:10) 13.8 (07:20) 20.1 9.72 (15:50) 5.28 (18:00) 0 0 0 0 0
10-06-2019 26.1 (17:30) 13.9 (07:10) 20 11.11 (21:20) 6.39 (21:20) 0 0 0 0 0
09-06-2019 25.6 (17:40) 15.8 (00:00) 20.7 11.39 (16:50) 6.67 (23:00) 0 0 0 0 0
08-06-2019 29 (16:10) 15.1 (00:00) 22.1 11.11 (19:30) 6.39 (18:30) 0 0 0 0 0
07-06-2019 25.1 (19:00) 12.3 (00:00) 18.7 10.83 (02:10) 6.11 (02:20) 0.6 0 0.6 0 0
06-06-2019 25.9 (17:10) 12.6 (00:00) 19.3 10.83 (18:00) 6.39 (20:10) 0 0 0 0 0
05-06-2019 21.9 (19:40) 12.3 (00:00) 17.1 10 (01:20) 6.11 (00:50) 0 0 0 0 0
04-06-2019 28.9 (17:10) 18.9 (00:00) 23.9 -- (--) -- (--) 0 0 0 0 0
03-06-2019 33.7 (17:20) 18.3 (00:00) 26 -- (--) -- (--) 0 0 0 0 0
02-06-2019 33.7 (18:20) 16.8 (00:00) 25.3 8.61 (19:40) 5.28 (19:40) 0 0 0 0 0
01-06-2019 32.7 (17:00) 18.7 (00:00) 25.7 14.72 (01:40) 5.56 (18:10) 0 0 0 0 0
31-05-2019 33 (17:20) 17 (00:00) 25 10.83 (00:50) 5.56 (19:00) 0 0 0 0 0
30-05-2019 31.4 (17:30) 16.3 (00:00) 23.8 8.89 (17:30) 5 (17:40) 0 0 0 0 0
29-05-2019 30.7 (17:30) 17.4 (00:00) 24.1 10.56 (06:00) 5.28 (06:00) 0 0 0 0 0
28-05-2019 32.5 (17:50) 19.5 (00:00) 26 11.67 (00:40) 5.83 (00:40) 0 0 0 0 0
27-05-2019 31.3 (17:10) 17.5 (00:00) 24.4 10.56 (22:50) 6.39 (23:59) 0 0 0 0 0
26-05-2019 28.8 (18:00) 15.6 (00:00) 22.2 8.06 (14:50) 3.89 (16:30) 0 0 0 0 0
25-05-2019 27.1 (18:30) 14.8 (00:00) 21 7.78 (13:00) 3.61 (11:30) 0 0 0 0 0
24-05-2019 28.3 (19:00) 16.9 (00:00) 22.6 8.89 (01:20) 5.56 (01:20) 0 0 0 0 0
23-05-2019 29.5 (17:20) 17 (00:00) 23.3 10.83 (16:20) 5 (23:30) 0 0 0 0 0
22-05-2019 28.1 (18:30) 15 (00:00) 21.6 8.06 (13:30) 4.44 (20:00) 0 0 0 0 0
21-05-2019 25.8 (16:50) 13.6 (07:20) 19.7 10.56 (00:40) 5.56 (00:10) 0 0 0 0 0
20-05-2019 24 (17:40) 12.5 (07:20) 18.3 10.28 (23:59) 5.83 (23:50) 0 0 0 0 0
19-05-2019 22.2 (17:30) 10.3 (00:00) 16.3 10.56 (22:20) 6.39 (20:50) 0 0 0 0 0
18-05-2019 20.2 (18:30) 9.8 (00:00) 15 11.94 (17:30) 6.67 (15:30) 0 0 0 0 0
17-05-2019 20.2 (19:00) 9.2 (00:00) 14.7 9.72 (16:30) 5.83 (00:10) 0 0 0 0 0

Gráficas

Temp. máximas Temp. mínimas Temp. medias Precipitaciones Rachas de viento máximas Velocidades máximas media en intervalos de 10 minutos

Datos horarios

Fecha y hora oficial Temperatura (ºC) Velocidad del viento (km/h) Dirección del viento Racha (km/h) Dirección de racha Precipitación (mm) Presión (hPa) Tendencia (hPa) Humedad (%)
2019-06-15 23:00:00 21.9 3 Oeste 9 Sudoeste 0 -- -- 31
2019-06-15 22:00:00 22.2 2 Este 12 Noroeste 0 -- -- 30
2019-06-15 21:00:00 25.1 8 Noroeste 17 Noroeste 0 -- -- 28
2019-06-15 20:00:00 26.2 12 Noroeste 20 Noroeste 0 -- -- 27
2019-06-15 19:00:00 26.8 9 Norte 22 Noroeste 0 -- -- 27
2019-06-15 18:00:00 26.8 13 Noroeste 24 Noroeste 0 -- -- 29
2019-06-15 17:00:00 26.6 8 Oeste 19 Noroeste 0 -- -- 31
2019-06-15 16:00:00 25.3 14 Noroeste 24 Noroeste 0 -- -- 34
2019-06-15 15:00:00 24.7 6 Norte 18 Norte 0 -- -- 36
2019-06-15 14:00:00 22.8 5 Este 19 Este 0 -- -- 40
2019-06-15 13:00:00 21.6 4 Nordeste 23 Sudeste 0 -- -- 43
2019-06-15 12:00:00 20.3 9 Sudeste 24 Sudeste 0 -- -- 47
2019-06-15 11:00:00 18.4 6 Nordeste 18 Nordeste 0 -- -- 54
2019-06-15 10:00:00 17.1 3 Este 14 Nordeste 0 -- -- 57
2019-06-15 09:00:00 15.4 4 Sudeste 9 Sudeste 0 -- -- 65
2019-06-15 08:00:00 12.4 5 Este 9 Este 0 -- -- 73
2019-06-15 07:00:00 12.3 3 Este 9 Este 0 -- -- 73
2019-06-15 06:00:00 12.5 0 Calma 5 Nordeste 0 -- -- 71
2019-06-15 05:00:00 12.2 2 Norte 9 Noroeste 0 -- -- 70
2019-06-15 04:00:00 13.1 6 Noroeste 14 Oeste 0 -- -- 64
2019-06-15 03:00:00 13.7 9 Noroeste 28 Oeste 0 -- -- 62
2019-06-15 02:00:00 13.9 16 Oeste -- -- -- -- -- 61
2019-06-15 01:00:00 13.9 18 Oeste 34 Oeste 0 -- -- 65
2019-06-15 00:00:00 15.2 16 Oeste 32 Noroeste 0 -- -- 60
2019-06-14 23:00:00 16.1 17 Noroeste 30 Noroeste 0 -- -- 54
2019-06-14 22:00:00 17.5 13 Oeste 26 Oeste 0 -- -- 49
2019-06-14 21:00:00 18.6 16 Oeste 30 Oeste 0 -- -- 44
2019-06-14 20:00:00 20.5 17 Oeste 35 Noroeste 0 -- -- 40
2019-06-14 19:00:00 20.2 24 Noroeste 41 Oeste 0 -- -- 39
2019-06-14 18:00:00 20.7 21 Oeste 44 Oeste 0 -- -- 40
2019-06-14 17:00:00 21.7 20 Oeste 40 Oeste 0 -- -- 41
2019-06-14 16:00:00 21.2 22 Oeste 42 Oeste 0 -- -- 45
2019-06-14 15:00:00 20.3 24 Oeste 43 Noroeste 0 -- -- 46
2019-06-14 14:00:00 19.8 21 Oeste 39 Noroeste 0 -- -- 48
2019-06-14 13:00:00 19.6 21 Oeste 37 Oeste 0 -- -- 52
2019-06-14 12:00:00 18 15 Oeste 29 Oeste 0 -- -- 67
2019-06-14 11:00:00 16.9 20 Oeste 30 Noroeste 0 -- -- 74
2019-06-14 10:00:00 16.5 13 Oeste 20 Oeste 0 -- -- 74
2019-06-14 09:00:00 15.9 13 Oeste 21 Oeste 0 -- -- 77
2019-06-14 08:00:00 15.8 12 Oeste 22 Oeste 0 -- -- 81
2019-06-14 07:00:00 15.9 13 Oeste 27 Oeste 0 -- -- 76
2019-06-14 06:00:00 16.2 18 Oeste 28 Oeste 0 -- -- 70
2019-06-14 05:00:00 17.1 14 Oeste 25 Oeste 0 -- -- 66
2019-06-14 04:00:00 17.2 11 Oeste 25 Noroeste 0 -- -- 68
2019-06-14 03:00:00 18.1 15 Oeste 33 Oeste 0 -- -- 64
2019-06-14 02:00:00 18.4 19 Oeste 36 Oeste 0 -- -- 60
2019-06-14 01:00:00 18.9 15 Oeste 32 Sudoeste 0 -- -- 55
2019-06-14 00:00:00 19.4 17 Oeste 36 Oeste 0 -- -- 51
2019-06-13 23:00:00 21.1 18 Oeste 28 Oeste 0 -- -- 46
2019-06-13 22:00:00 22 16 Oeste 31 Oeste 0 -- -- 45
2019-06-13 21:00:00 23.4 18 Noroeste 29 Noroeste 0 -- -- 43
2019-06-13 20:00:00 24.7 14 Noroeste 31 Oeste 0 -- -- 42
2019-06-13 19:00:00 25.7 18 Noroeste 32 Noroeste 0 -- -- 40
2019-06-13 18:00:00 26.6 14 Oeste 33 Oeste 0 -- -- 39
2019-06-13 17:00:00 25.9 11 Oeste 30 Oeste 0 -- -- 41
2019-06-13 16:00:00 26.4 16 Oeste 34 Oeste 0 -- -- 41
2019-06-13 15:00:00 25.6 10 Oeste 22 Oeste 0 -- -- 42
2019-06-13 14:00:00 24 8 Oeste 24 Oeste 0 -- -- 47
2019-06-13 13:00:00 23.6 6 Noroeste 20 Este 0 -- -- 51
2019-06-13 12:00:00 22.4 2 Este 18 Sudeste 0 -- -- 54
2019-06-13 11:00:00 20.2 4 Este 15 Nordeste 0 -- -- 59
2019-06-13 10:00:00 19.3 6 Sudeste 15 Sur 0 -- -- 61
2019-06-13 09:00:00 17.7 6 Sudeste 8 Este 0 -- -- 71
2019-06-13 08:00:00 14.9 5 Este 9 Este 0 -- -- 81
2019-06-13 07:00:00 13.9 0 Calma 9 Noroeste 0 -- -- 86
2019-06-13 06:00:00 14.6 0 Calma 10 Este 0 -- -- 82
2019-06-13 05:00:00 15 0 Calma 13 Norte 0 -- -- 79
2019-06-13 04:00:00 15.3 11 Norte 16 Noroeste 0 -- -- 76
2019-06-13 03:00:00 16.6 10 Noroeste 30 Oeste 0 -- -- 66
2019-06-13 02:00:00 17.8 8 Noroeste 26 Oeste 0 -- -- 60
2019-06-13 01:00:00 19.3 13 Oeste 26 Sudoeste 0 -- -- 52
2019-06-13 00:00:00 18.6 14 Noroeste 26 Noroeste 0 -- -- 49
2019-06-12 23:00:00 20.7 4 Oeste 15 Norte 0 -- -- 43
2019-06-12 22:00:00 21.2 10 Noroeste 21 Oeste 0 -- -- 41
2019-06-12 21:00:00 23.9 13 Oeste 26 Oeste 0 -- -- 37
2019-06-12 20:00:00 25.1 13 Oeste 30 Noroeste 0 -- -- 38
2019-06-12 19:00:00 25.9 16 Oeste 34 Oeste 0 -- -- 37
2019-06-12 18:00:00 26.4 16 Oeste 33 Noroeste 0 -- -- 37
2019-06-12 17:00:00 25.9 14 Oeste 26 Oeste 0 -- -- 37
2019-06-12 16:00:00 26 10 Noroeste 23 Noroeste 0 -- -- 40
2019-06-12 15:00:00 24.2 5 Oeste 22 Noroeste 0 -- -- 44
2019-06-12 14:00:00 22.7 9 Oeste 31 Oeste 0 -- -- 45
2019-06-12 13:00:00 22.9 7 Oeste 19 Noroeste 0 -- -- 47
2019-06-12 12:00:00 22.4 11 Oeste 19 Oeste 0 -- -- 49
2019-06-12 11:00:00 21.4 0 Calma 10 Nordeste 0 -- -- 51
2019-06-12 10:00:00 20 3 Este 10 Nordeste 0 -- -- 53
2019-06-12 09:00:00 17.3 0 Calma 13 Noroeste 0 -- -- 67
2019-06-12 08:00:00 16 5 Noroeste 18 Oeste 0 -- -- 68
2019-06-12 07:00:00 15.3 5 Oeste 18 Noroeste 0 -- -- 67
2019-06-12 06:00:00 14.7 6 Norte 12 Norte 0 -- -- 62
2019-06-12 05:00:00 15.5 5 Este 10 Este 0 -- -- 40
2019-06-12 04:00:00 16.6 4 Este 15 Nordeste 0 -- -- 38
2019-06-12 03:00:00 16.8 6 Nordeste 14 Nordeste 0 -- -- 39
2019-06-12 02:00:00 17.4 5 Nordeste 12 Sur 0 -- -- 39
2019-06-12 01:00:00 18.8 5 Nordeste 15 Noroeste 0 -- -- 36
2019-06-12 00:00:00 20.1 6 Nordeste 19 Nordeste 0 -- -- 35
2019-06-11 23:00:00 21.1 0 Calma 7 Noroeste 0 -- -- 30
2019-06-11 22:00:00 21.9 7 Norte 15 Norte 0 -- -- 29
2019-06-11 21:00:00 24.6 9 Noroeste 22 Oeste 0 -- -- 29
2019-06-11 20:00:00 25.7 11 Noroeste 31 Noroeste 0 -- -- 30
2019-06-11 19:00:00 26 15 Noroeste 34 Oeste 0 -- -- 31
2019-06-11 18:00:00 25.7 19 Noroeste 34 Oeste 0 -- -- 32
2019-06-11 17:00:00 25.1 17 Noroeste 30 Oeste 0 -- -- 34
2019-06-11 16:00:00 24.9 16 Oeste 35 Oeste 0 -- -- 34
2019-06-11 15:00:00 23.9 11 Noroeste 26 Noroeste 0 -- -- 36
2019-06-11 14:00:00 22.8 13 Oeste 26 Noroeste 0 -- -- 39
2019-06-11 13:00:00 21.1 14 Oeste 31 Oeste 0 -- -- 44
2019-06-11 12:00:00 19.7 14 Noroeste 27 Oeste 0 -- -- 49
2019-06-11 11:00:00 17.8 13 Noroeste 23 Noroeste 0 -- -- 64
2019-06-11 10:00:00 16.6 10 Noroeste 21 Noroeste 0 -- -- 70
2019-06-11 09:00:00 15.5 10 Oeste 18 Oeste 0 -- -- 75
2019-06-11 08:00:00 14.3 10 Noroeste 17 Noroeste 0 -- -- 78
2019-06-11 07:00:00 14.2 6 Noroeste 21 Noroeste 0 -- -- 74
2019-06-11 06:00:00 14.2 10 Noroeste 15 Noroeste 0 -- -- 71
2019-06-11 05:00:00 14.5 8 Noroeste 22 Noroeste 0 -- -- 65
2019-06-11 04:00:00 15.2 11 Noroeste 33 Oeste 0 -- -- 57
2019-06-11 03:00:00 16.3 16 Oeste 33 Oeste 0 -- -- 52
2019-06-11 02:00:00 15.9 13 Oeste 27 Oeste 0 -- -- 55
2019-06-11 01:00:00 16.9 14 Oeste 31 Oeste 0 -- -- 53
2019-06-11 00:00:00 17 15 Noroeste 33 Oeste 0 -- -- 55
2019-06-10 23:00:00 18.5 19 Oeste 32 Oeste 0 -- -- 46
2019-06-10 22:00:00 20 17 Oeste 40 Oeste 0 -- -- 40
2019-06-10 21:00:00 24.2 12 Oeste 27 Oeste 0 -- -- 29
2019-06-10 20:00:00 25.2 14 Oeste 28 Oeste 0 -- -- 29
2019-06-10 19:00:00 25.9 10 Oeste 31 Noroeste 0 -- -- 29
2019-06-10 18:00:00 25.5 18 Oeste 31 Oeste 0 -- -- 29
2019-06-10 17:00:00 25.2 14 Noroeste 28 Oeste 0 -- -- 29
2019-06-10 16:00:00 24.5 11 Noroeste 30 Noroeste 0 -- -- 27
2019-06-10 15:00:00 23.4 13 Noroeste 29 Oeste 0 -- -- 32
2019-06-10 14:00:00 22.5 13 Oeste 25 Noroeste 0 -- -- 36
2019-06-10 13:00:00 21.9 10 Noroeste 28 Noroeste 0 -- -- 38
2019-06-10 12:00:00 20.9 12 Noroeste 22 Noroeste 0 -- -- 41
2019-06-10 11:00:00 20.2 7 Oeste 16 Oeste 0 -- -- 45
2019-06-10 10:00:00 18.4 2 Sur 7 Oeste 0 -- -- 52
2019-06-10 09:00:00 16.4 0 Calma 7 Noroeste 0 -- -- 57
2019-06-10 08:00:00 15.1 4 Noroeste 8 Este 0 -- -- 57
2019-06-10 07:00:00 14.2 6 Este 9 Sudeste 0 -- -- 58
2019-06-10 06:00:00 15.5 0 Calma 7 Norte 0 -- -- 58
2019-06-10 05:00:00 14.8 6 Noroeste 18 Noroeste 0 -- -- 58
2019-06-10 04:00:00 15.6 7 Noroeste 14 Noroeste 0 -- -- 53
2019-06-10 03:00:00 16.3 9 Noroeste 21 Noroeste 0 -- -- 51
2019-06-10 02:00:00 16.7 11 Noroeste 28 Oeste 0 -- -- 47
2019-06-10 01:00:00 17.4 16 Oeste 39 Oeste 0 -- -- 43
2019-06-10 00:00:00 18 19 Noroeste 32 Oeste 0 -- -- 37
2019-06-09 23:00:00 19.4 24 Oeste 38 Oeste 0 -- -- 34
2019-06-09 22:00:00 20.6 20 Oeste 35 Oeste 0 -- -- 32
2019-06-09 21:00:00 23.1 18 Oeste 30 Oeste 0 -- -- 30
2019-06-09 20:00:00 24.4 17 Oeste 32 Oeste 0 -- -- 31
2019-06-09 19:00:00 25.3 17 Oeste 36 Oeste 0 -- -- 31
2019-06-09 18:00:00 25.4 17 Oeste 36 Oeste 0 -- -- 31
2019-06-09 17:00:00 24.5 18 Oeste 41 Oeste 0 -- -- 35
2019-06-09 16:00:00 24.9 17 Oeste 31 Oeste 0 -- -- 38
2019-06-09 15:00:00 23.7 18 Oeste 33 Oeste 0 -- -- 40
2019-06-09 14:00:00 23.8 14 Oeste 26 Oeste 0 -- -- 45
2019-06-09 13:00:00 22.1 12 Noroeste 24 Oeste 0 -- -- 49
2019-06-09 12:00:00 21.3 12 Oeste 22 Oeste 0 -- -- 57
2019-06-09 11:00:00 19.6 5 Oeste 12 Oeste 0 -- -- 67
2019-06-09 10:00:00 18.9 2 Norte 6 Oeste 0 -- -- 72
2019-06-09 09:00:00 16.7 0 Calma 9 Noroeste 0 -- -- 77
2019-06-09 08:00:00 16.4 5 Noroeste 11 Noroeste 0 -- -- 78
2019-06-09 07:00:00 16.2 6 Noroeste 10 Noroeste 0 -- -- 78
2019-06-09 06:00:00 16.6 6 Noroeste 14 Sudoeste 0 -- -- 76
2019-06-09 05:00:00 16.8 10 Oeste 24 Noroeste 0 -- -- 83
2019-06-09 04:00:00 16.8 18 Noroeste 30 Noroeste 0 -- -- 84
2019-06-09 03:00:00 18.3 12 Oeste 29 Oeste 0 -- -- 67
2019-06-09 02:00:00 18.1 18 Oeste 35 Oeste 0 -- -- 64
2019-06-09 01:00:00 20 18 Oeste 34 Oeste 0 -- -- 45
2019-06-09 00:00:00 20.4 16 Oeste 31 Oeste 0 -- -- 44
2019-06-08 23:00:00 20.4 20 Noroeste 33 Noroeste 0 -- -- 44
2019-06-08 22:00:00 21.3 18 Noroeste 33 Noroeste 0 -- -- 40
2019-06-08 21:00:00 22.6 21 Noroeste 35 Oeste 0 -- -- 37
2019-06-08 20:00:00 24.1 19 Oeste 40 Oeste 0 -- -- 31
2019-06-08 19:00:00 25.4 22 Oeste 38 Oeste 0 -- -- 28
2019-06-08 18:00:00 27.8 21 Oeste 38 Oeste 0 -- -- 27
2019-06-08 17:00:00 28.6 16 Oeste 36 Oeste 0 -- -- 26
2019-06-08 16:00:00 28.8 18 Oeste 36 Oeste 0 -- -- 26
2019-06-08 15:00:00 27.5 15 Oeste 32 Oeste 0 -- -- 26
2019-06-08 14:00:00 27.5 18 Oeste 30 Oeste 0 -- -- 26
2019-06-08 13:00:00 25.8 4 Noroeste 16 Noroeste 0 -- -- 26
2019-06-08 12:00:00 24.4 3 Sur 15 Oeste 0 -- -- 26
2019-06-08 11:00:00 22.1 8 Oeste 13 Noroeste 0 -- -- 27
2019-06-08 10:00:00 20.2 4 Noroeste 9 Noroeste 0 -- -- 27
2019-06-08 09:00:00 18.4 5 Noroeste 11 Noroeste 0 -- -- 27
2019-06-08 08:00:00 16.8 6 Noroeste 18 Este 0 -- -- 28
2019-06-08 07:00:00 16.5 13 Este 18 Este 0 -- -- 28
2019-06-08 06:00:00 16.1 13 Este 17 Este 0 -- -- 28
2019-06-08 05:00:00 16.5 8 Este 12 Este 0 -- -- 27
2019-06-08 04:00:00 15.3 8 Este 12 Nordeste 0 -- -- 28
2019-06-08 03:00:00 16.2 10 Este 13 Este 0 -- -- 27
2019-06-08 02:00:00 16.4 8 Este 14 Sudeste 0 -- -- 26
2019-06-08 01:00:00 16.8 9 Sudeste 15 Este 0 -- -- 26
2019-06-08 00:00:00 18.2 5 Este 11 Norte 0 -- -- 26
2019-06-07 23:00:00 19.7 5 Nordeste 9 Norte 0 -- -- 25
2019-06-07 22:00:00 20.2 6 Norte 9 Norte 0 -- -- 25
2019-06-07 21:00:00 23.2 6 Noroeste 12 Noroeste 0 -- -- 24
2019-06-07 20:00:00 24.1 8 Noroeste 18 Noroeste 0 -- -- 23
2019-06-07 19:00:00 24.6 4 Noroeste 22 Noroeste 0 -- -- 25
2019-06-07 18:00:00 23.7 8 Oeste 21 Noroeste 0 -- -- 28
2019-06-07 17:00:00 23.8 9 Noroeste 24 Noroeste 0 -- -- 32
2019-06-07 16:00:00 22.1 10 Noroeste 26 Noroeste 0 -- -- 39
2019-06-07 15:00:00 20.5 9 Noroeste 21 Noroeste 0 -- -- 47
2019-06-07 14:00:00 19.6 6 Noroeste 17 Oeste 0 -- -- 54
2019-06-07 13:00:00 17.6 0 Calma 14 Este 0 -- -- 74
2019-06-07 12:00:00 15.6 10 Este 17 Este 0.1 -- -- 99
2019-06-07 11:00:00 12.9 5 Noroeste 13 Noroeste 0.5 -- -- 99
2019-06-07 10:00:00 12.7 7 Norte 14 Noroeste 0 -- -- 99
2019-06-07 09:00:00 13.3 9 Noroeste 24 Oeste 0 -- -- 99
2019-06-07 08:00:00 13.9 13 Oeste 30 Oeste 0 -- -- 90
2019-06-07 07:00:00 14.2 15 Oeste 30 Oeste 0 -- -- 88
2019-06-07 06:00:00 14.1 18 Oeste 32 Oeste 0 -- -- 87
2019-06-07 05:00:00 13.7 20 Oeste 34 Noroeste 0 -- -- 85
2019-06-07 04:00:00 13.9 19 Oeste 31 Noroeste 0 -- -- 76
2019-06-07 03:00:00 14.1 20 Noroeste 39 Oeste 0 -- -- 68
2019-06-07 02:00:00 14.7 21 Oeste 37 Oeste 0 -- -- 63
2019-06-07 01:00:00 14.6 13 Oeste 36 Oeste 0 -- -- 59
2019-06-07 00:00:00 15.2 18 Oeste 39 Oeste 0 -- -- 54
2019-06-06 23:00:00 16.5 20 Oeste 34 Oeste 0 -- -- 39
2019-06-06 22:00:00 18.1 15 Oeste 32 Oeste 0 -- -- 33
2019-06-06 21:00:00 20.3 19 Oeste 36 Oeste 0 -- -- 33
2019-06-06 20:00:00 22.6 21 Oeste 36 Oeste 0 -- -- 33
2019-06-06 19:00:00 23.8 22 Oeste 36 Oeste 0 -- -- 31
2019-06-06 18:00:00 25.6 15 Oeste 39 Noroeste 0 -- -- 31
2019-06-06 17:00:00 25.2 16 Oeste 30 Noroeste 0 -- -- 31
2019-06-06 16:00:00 24.6 18 Oeste 33 Oeste 0 -- -- 31
2019-06-06 15:00:00 24 17 Noroeste 31 Noroeste 0 -- -- 34
2019-06-06 14:00:00 22.8 15 Noroeste 24 Noroeste 0 -- -- 39
2019-06-06 13:00:00 21.9 8 Oeste 19 Oeste 0 -- -- 42
2019-06-06 12:00:00 20.3 8 Oeste 17 Oeste 0 -- -- 47
2019-06-06 11:00:00 18.6 4 Noroeste 13 Noroeste 0 -- -- 50
2019-06-06 10:00:00 17.8 4 Sudeste 12 Sudeste 0 -- -- 52
2019-06-06 09:00:00 15.1 0 Calma 7 Este 0 -- -- 64
2019-06-06 08:00:00 12.7 4 Este 6 Este 0 -- -- 66
2019-06-06 07:00:00 12.7 3 Nordeste 11 Noroeste 0 -- -- 70
2019-06-06 06:00:00 13.2 3 Noroeste 17 Noroeste 0 -- -- 68
2019-06-06 05:00:00 13.9 9 Noroeste 16 Norte 0 -- -- 66
2019-06-06 04:00:00 14.2 8 Noroeste 16 Noroeste 0 -- -- 64
2019-06-06 03:00:00 14.4 6 Noroeste 14 Noroeste 0 -- -- 64
2019-06-06 02:00:00 15.3 6 Norte 18 Noroeste 0 -- -- 60
2019-06-06 01:00:00 15.6 8 Noroeste 18 Oeste 0 -- -- 53
2019-06-06 00:00:00 16.9 0 Calma 5 Sudeste 0 -- -- 39
2019-06-05 23:00:00 17.1 2 Norte 8 Noroeste 0 -- -- 39
2019-06-05 22:00:00 18 2 Oeste 13 Noroeste 0 -- -- 37
2019-06-05 21:00:00 20.6 7 Oeste 22 Noroeste 0 -- -- 34
2019-06-05 20:00:00 20.5 13 Noroeste 32 Oeste 0 -- -- 35
2019-06-05 19:00:00 20.3 12 Noroeste 28 Oeste 0 -- -- 36
2019-06-05 18:00:00 21 12 Oeste 22 Oeste 0 -- -- 37
2019-06-05 17:00:00 20 10 Noroeste 26 Noroeste 0 -- -- 39
2019-06-05 16:00:00 20.8 13 Oeste 24 Noroeste 0 -- -- 40
2019-06-05 15:00:00 19.7 12 Noroeste 29 Noroeste 0 -- -- 43
2019-06-05 14:00:00 19.3 13 Noroeste 30 Noroeste 0 -- -- 47
2019-06-05 13:00:00 17.4 8 Oeste 27 Noroeste 0 -- -- 51
2019-06-05 12:00:00 16.4 13 Noroeste 30 Noroeste 0 -- -- 55
2019-06-05 11:00:00 15.2 12 Noroeste 23 Oeste 0 -- -- 57
2019-06-05 10:00:00 14.3 11 Noroeste 24 Noroeste 0 -- -- 61
2019-06-05 09:00:00 13.3 13 Oeste 26 Oeste 0 -- -- 63
2019-06-05 08:00:00 12.5 12 Noroeste 23 Noroeste 0 -- -- 63
2019-06-05 07:00:00 13.4 13 Oeste 26 Oeste 0 -- -- 61
2019-06-05 06:00:00 14.4 14 Oeste 34 Oeste 0 -- -- 63
2019-06-05 05:00:00 16.4 18 Noroeste 35 Oeste 0 -- -- 76
2019-06-05 04:00:00 16.9 18 Oeste 31 Oeste 0 -- -- 78
2019-06-05 03:00:00 17.4 18 Oeste 33 Oeste 0 -- -- 81
2019-06-05 02:00:00 18 20 Oeste 36 Oeste 0 -- -- 78
2019-06-05 01:00:00 18.5 19 Oeste 35 Oeste 0 -- -- 73
2019-06-05 00:00:00 18.9 23 Oeste 42 Oeste 0 -- -- 67
2019-06-04 23:00:00 20.4 23 Oeste 39 Oeste 0 -- -- 54
2019-06-04 22:00:00 21.9 22 Oeste -- -- 0 -- -- 47
2019-06-04 21:00:00 24.1 -- -- -- -- 0 -- -- 40
2019-06-04 20:00:00 26.2 -- -- -- -- 0 -- -- 38
2019-06-04 19:00:00 28.1 -- -- -- -- 0 -- -- 36
2019-06-04 18:00:00 28.5 -- -- -- -- 0 -- -- 35
2019-06-04 17:00:00 28.3 -- -- -- -- 0 -- -- 34
2019-06-04 16:00:00 28.2 -- -- -- -- 0 -- -- 34
2019-06-04 15:00:00 27.8 -- -- -- -- 0 -- -- 35
2019-06-04 14:00:00 27.1 -- -- -- -- 0 -- -- 34
2019-06-04 13:00:00 26.4 -- -- -- -- 0 -- -- 33
2019-06-04 12:00:00 25.2 -- -- -- -- 0 -- -- 34
2019-06-04 11:00:00 24.8 -- -- -- -- 0 -- -- 34
2019-06-04 10:00:00 22.1 -- -- -- -- 0 -- -- 37
2019-06-04 09:00:00 20.8 -- -- -- -- 0 -- -- 36
2019-06-04 08:00:00 20.1 -- -- -- -- 0 -- -- 35
2019-06-04 07:00:00 20.1 -- -- -- -- 0 -- -- 36
2019-06-04 06:00:00 21 -- -- -- -- 0 -- -- 37
2019-06-04 05:00:00 21 -- -- -- -- 0 -- -- 39
2019-06-04 04:00:00 19.7 -- -- -- -- 0 -- -- 47
2019-06-04 03:00:00 19.4 -- -- -- -- 0 -- -- 47
2019-06-04 02:00:00 20 -- -- -- -- 0 -- -- 43
2019-06-04 01:00:00 21.8 -- -- -- -- 0 -- -- 36
2019-06-04 00:00:00 24.6 -- -- -- -- 0 -- -- 32
2019-06-03 23:00:00 25.7 -- -- -- -- 0 -- -- 28
2019-06-03 22:00:00 26.7 -- -- -- -- 0 -- -- 24
2019-06-03 21:00:00 30 -- -- -- -- 0 -- -- 23
2019-06-03 20:00:00 31.8 -- -- -- -- 0 -- -- 23
2019-06-03 19:00:00 32.6 -- -- -- -- 0 -- -- 23
2019-06-03 18:00:00 33.5 -- -- -- -- 0 -- -- 24
2019-06-03 17:00:00 32.6 -- -- -- -- 0 -- -- 26
2019-06-03 16:00:00 32.9 -- -- -- -- 0 -- -- 26
2019-06-03 15:00:00 32.9 -- -- -- -- 0 -- -- 27
2019-06-03 14:00:00 31.1 -- -- -- -- 0 -- -- 29
2019-06-03 13:00:00 29.2 9 Oeste 16 Noroeste 0 -- -- 30
2019-06-03 12:00:00 27.9 8 Noroeste 15 Oeste 0 -- -- 32
2019-06-03 11:00:00 25.7 4 Oeste 9 Noroeste 0 -- -- 33
2019-06-03 10:00:00 24.6 2 Oeste 4 Oeste 0 -- -- 32
2019-06-03 09:00:00 23.9 0 Calma 5 Nordeste 0 -- -- 31
2019-06-03 08:00:00 22.2 2 Norte 6 Noroeste 0 -- -- 30
2019-06-03 07:00:00 21.9 0 Calma 10 Noroeste 0 -- -- 30
2019-06-03 06:00:00 21.1 4 Norte 8 Norte 0 -- -- 31
2019-06-03 05:00:00 20.8 3 Norte 13 Noroeste 0 -- -- 32
2019-06-03 04:00:00 20.5 5 Norte 14 Noroeste 0 -- -- 33
2019-06-03 03:00:00 19.1 4 Noroeste 18 Noroeste 0 -- -- 34
2019-06-03 02:00:00 20.1 10 Noroeste 24 Noroeste 0 -- -- 33
2019-06-03 01:00:00 22.3 12 Noroeste 23 Norte 0 -- -- 30
2019-06-03 00:00:00 22.6 9 Noroeste 19 Noroeste 0 -- -- 31
2019-06-02 23:00:00 23.8 12 Noroeste 20 Norte 0 -- -- 31
2019-06-02 22:00:00 24.8 11 Noroeste 26 Oeste 0 -- -- 30
2019-06-02 21:00:00 28.3 14 Oeste 27 Oeste 0 -- -- 27
2019-06-02 20:00:00 30.2 18 Oeste 31 Oeste 0 -- -- 27
2019-06-02 19:00:00 33.1 9 Oeste 21 Noroeste 0 -- -- 26
2019-06-02 18:00:00 32.8 8 Oeste 21 Oeste 0 -- -- 26
2019-06-02 17:00:00 32.3 11 Oeste 21 Oeste 0 -- -- 27
2019-06-02 16:00:00 31.5 7 Noroeste 19 Oeste 0 -- -- 28
2019-06-02 15:00:00 29.9 8 Noroeste 23 Noroeste 0 -- -- 30
2019-06-02 14:00:00 29 6 Noroeste 18 Noroeste 0 -- -- 32
2019-06-02 13:00:00 27.3 9 Oeste 16 Noroeste 0 -- -- 35
2019-06-02 12:00:00 25.5 5 Noroeste 10 Noroeste 0 -- -- 37
2019-06-02 11:00:00 23.5 3 Oeste 8 Noroeste 0 -- -- 39
2019-06-02 10:00:00 21.4 3 Oeste 17 Este 0 -- -- 41
2019-06-02 09:00:00 19.7 8 Nordeste 24 Este 0 -- -- 43
2019-06-02 08:00:00 17.5 11 Este 21 Este 0 -- -- 43
2019-06-02 07:00:00 17.1 3 Oeste 24 Este 0 -- -- 44
2019-06-02 06:00:00 16.9 7 Este 13 Este 0 -- -- 43
2019-06-02 05:00:00 18.6 2 Este 11 Este 0 -- -- 41
2019-06-02 04:00:00 19 2 Sur 11 Noroeste 0 -- -- 40
2019-06-02 03:00:00 19.1 0 Calma 15 Noroeste 0 -- -- 39
2019-06-02 02:00:00 19.7 8 Noroeste 16 Norte 0 -- -- 38
2019-06-02 01:00:00 19.9 2 Norte 13 Norte 0 -- -- 39
2019-06-02 00:00:00 20.3 8 Norte 16 Noroeste 0 -- -- 38
2019-06-01 23:00:00 21.4 10 Norte 21 Oeste 0 -- -- 36
2019-06-01 22:00:00 23.3 11 Noroeste 24 Noroeste 0 -- -- 34
2019-06-01 21:00:00 25.4 15 Noroeste 33 Oeste 0 -- -- 33
2019-06-01 20:00:00 28 19 Oeste 32 Oeste 0 -- -- 31
2019-06-01 19:00:00 29.2 19 Oeste 30 Oeste 0 -- -- 30
2019-06-01 18:00:00 30.7 17 Oeste 31 Oeste 0 -- -- 29
2019-06-01 17:00:00 32.5 5 Sudoeste 25 Oeste 0 -- -- 27
2019-06-01 16:00:00 32 4 Oeste 20 Norte 0 -- -- 28
2019-06-01 15:00:00 31.7 6 Nordeste 22 Sudeste 0 -- -- 29
2019-06-01 14:00:00 29.2 8 Noroeste 21 Noroeste 0 -- -- 33
2019-06-01 13:00:00 27.8 6 Oeste 18 Noroeste 0 -- -- 36
2019-06-01 12:00:00 25.6 9 Oeste 17 Oeste 0 -- -- 39
2019-06-01 11:00:00 23.6 7 Noroeste 10 Noroeste 0 -- -- 43
2019-06-01 10:00:00 -- 4 Noroeste 10 Este 0 -- -- --
2019-06-01 09:00:00 21.1 5 Este 17 Este 0 -- -- 43
2019-06-01 08:00:00 18.7 14 Este 22 Este 0 -- -- 43
2019-06-01 07:00:00 19.1 16 Este 24 Este 0 -- -- 39
2019-06-01 06:00:00 18.9 17 Este 22 Este 0 -- -- 38
2019-06-01 05:00:00 19.3 14 Este 20 Este 0 -- -- 36
2019-06-01 04:00:00 21.7 11 Este 38 Sudeste 0 -- -- 32
2019-06-01 03:00:00 23.2 4 Sudeste 45 Sudeste 0 -- -- 31
2019-06-01 02:00:00 23.7 18 Sudeste 53 Este 0 -- -- 32
2019-06-01 01:00:00 24.3 11 Este 31 Este 0 -- -- 33
2019-06-01 00:00:00 22.7 7 Este 15 Este 0 -- -- 36
2019-05-31 23:00:00 22.2 5 Noroeste 17 Noroeste 0 -- -- 35
2019-05-31 22:00:00 23.3 7 Noroeste 19 Noroeste 0 -- -- 34
2019-05-31 21:00:00 25.8 13 Noroeste 30 Oeste 0 -- -- 32
2019-05-31 20:00:00 28.4 17 Oeste 30 Noroeste 0 -- -- 30
2019-05-31 19:00:00 29.3 20 Oeste 31 Oeste 0 -- -- 30
2019-05-31 18:00:00 30.6 19 Oeste 28 Oeste 0 -- -- 29
2019-05-31 17:00:00 32.9 5 Nordeste 30 Sudeste 0 -- -- 26
2019-05-31 16:00:00 31.8 8 Oeste 33 Norte 0 -- -- 28
2019-05-31 15:00:00 30.8 7 Este 30 Sudeste 0 -- -- 27
2019-05-31 14:00:00 30.1 6 Sudeste 25 Sudeste 0 -- -- 28
2019-05-31 13:00:00 29.6 11 Sudeste 28 Sudeste 0 -- -- 28
2019-05-31 12:00:00 27.9 18 Sudeste 37 Sudeste 0 -- -- 31
2019-05-31 11:00:00 25.5 4 Sur 28 Sudeste 0 -- -- 33
2019-05-31 10:00:00 22.8 0 Calma 15 Este 0 -- -- 38
2019-05-31 09:00:00 22.4 6 Este 17 Este 0 -- -- 38
2019-05-31 08:00:00 19.7 6 Nordeste 20 Este 0 -- -- 40
2019-05-31 07:00:00 18.7 8 Este 24 Este 0 -- -- 43
2019-05-31 06:00:00 18.2 12 Este 21 Sudeste 0 -- -- 45
2019-05-31 05:00:00 17.2 14 Este 18 Este 0 -- -- 49
2019-05-31 04:00:00 18.3 13 Este 23 Este 0 -- -- 45
2019-05-31 03:00:00 21 11 Este 29 Sudeste 0 -- -- 37
2019-05-31 02:00:00 22 17 Sudeste 33 Sudeste 0 -- -- 37
2019-05-31 01:00:00 22.6 12 Sudeste 39 Sudeste 0 -- -- 39
2019-05-31 00:00:00 18.8 5 Norte -- -- -- -- -- 50
2019-05-30 23:00:00 19.7 4 Noroeste 20 Noroeste 0 -- -- 47
2019-05-30 22:00:00 21 6 Noroeste 22 Oeste 0 -- -- 43
2019-05-30 21:00:00 23.8 15 Oeste 30 Oeste 0 -- -- 38
2019-05-30 20:00:00 26.5 14 Oeste 30 Oeste 0 -- -- 36
2019-05-30 19:00:00 28.3 14 Oeste 27 Oeste 0 -- -- 34
2019-05-30 18:00:00 29.2 12 Oeste 32 Oeste 0 -- -- 34
2019-05-30 17:00:00 30.9 4 Norte 29 Nordeste 0 -- -- 27
2019-05-30 16:00:00 30.1 4 Nordeste 23 Sudeste 0 -- -- 29
2019-05-30 15:00:00 28.8 3 Este 20 Este 0 -- -- 33
2019-05-30 14:00:00 28 7 Este 22 Noroeste 0 -- -- 36
2019-05-30 13:00:00 25.5 9 Noroeste 18 Noroeste 0 -- -- 42
2019-05-30 12:00:00 23.9 10 Noroeste 18 Noroeste 0 -- -- 46
2019-05-30 11:00:00 21.6 8 Noroeste 13 Noroeste 0 -- -- 49
2019-05-30 10:00:00 20.4 5 Noroeste 8 Noroeste 0 -- -- 51
2019-05-30 09:00:00 19.2 2 Sur 4 Sur 0 -- -- 50
2019-05-30 08:00:00 17.8 0 Calma 6 Este 0 -- -- 52
2019-05-30 07:00:00 16.6 3 Nordeste 9 Norte 0 -- -- 58
2019-05-30 06:00:00 16.7 7 Noroeste 14 Norte 0 -- -- 56
2019-05-30 05:00:00 17.5 8 Norte 13 Noroeste 0 -- -- 47
2019-05-30 04:00:00 19.1 2 Este 12 Norte 0 -- -- 38
2019-05-30 03:00:00 20.6 8 Este 12 Este 0 -- -- 34
2019-05-30 02:00:00 22.2 5 Oeste 26 Sur 0 -- -- 32
2019-05-30 01:00:00 22.6 10 Sur 18 Sudeste 0 -- -- 31
2019-05-30 00:00:00 23.1 9 Sur 15 Sur 0 -- -- 29
2019-05-29 23:00:00 24 4 Noroeste 14 Norte 0 -- -- 27
2019-05-29 22:00:00 24.8 6 Oeste 20 Nordeste 0 -- -- 26
2019-05-29 21:00:00 27.2 8 Nordeste 28 Nordeste 0 -- -- 26
2019-05-29 20:00:00 28.8 10 Nordeste 32 Nordeste 0 -- -- 26
2019-05-29 19:00:00 30.3 4 Este 29 Nordeste 0 -- -- 26
2019-05-29 18:00:00 30.3 8 Este 28 Este 0 -- -- 26
2019-05-29 17:00:00 30 11 Nordeste 26 Norte 0 -- -- 27
2019-05-29 16:00:00 29.8 9 Nordeste 22 Nordeste 0 -- -- 28
2019-05-29 15:00:00 28.5 7 Nordeste 27 Noroeste 0 -- -- 29
2019-05-29 14:00:00 28.5 6 Nordeste 21 Nordeste 0 -- -- 31
2019-05-29 13:00:00 27.3 6 Sudeste 23 Norte 0 -- -- 32
2019-05-29 12:00:00 26 6 Nordeste 17 Norte 0 -- -- 34
2019-05-29 11:00:00 24.5 11 Sudeste 23 Sudeste 0 -- -- 36
2019-05-29 10:00:00 22.1 5 Sudeste 18 Sudeste 0 -- -- 38
2019-05-29 09:00:00 19.9 15 Sudeste 26 Sudeste 0 -- -- 41
2019-05-29 08:00:00 18 11 Sudeste 24 Sur 0 -- -- 41
2019-05-29 07:00:00 17.4 5 Sudeste 38 Sudeste 0 -- -- 41
2019-05-29 06:00:00 18.4 19 Sudeste 38 Sudeste 0 -- -- 38
2019-05-29 05:00:00 19.4 2 Oeste 32 Sur 0 -- -- 36
2019-05-29 04:00:00 20.6 0 Calma 23 Norte 0 -- -- 33
2019-05-29 03:00:00 22.9 9 Nordeste 21 Nordeste 0 -- -- 33
2019-05-29 02:00:00 23.2 2 Este 17 Nordeste 0 -- -- 36
2019-05-29 01:00:00 23.6 5 Norte 16 Nordeste 0 -- -- 38
2019-05-29 00:00:00 24.5 9 Noroeste 21 Oeste 0 -- -- 37
2019-05-28 23:00:00 25.6 13 Oeste 23 Oeste 0 -- -- 37
2019-05-28 22:00:00 27.4 0 Calma 9 Noroeste 0 -- -- 32
2019-05-28 21:00:00 29.9 5 Noroeste 21 Noroeste 0 -- -- 30
2019-05-28 20:00:00 31.1 10 Noroeste 21 Oeste 0 -- -- 29
2019-05-28 19:00:00 31.7 9 Noroeste 24 Noroeste 0 -- -- 29
2019-05-28 18:00:00 32.4 10 Noroeste 26 Noroeste 0 -- -- 29
2019-05-28 17:00:00 31.9 7 Noroeste 30 Oeste 0 -- -- 30
2019-05-28 16:00:00 30.9 10 Noroeste 26 Oeste 0 -- -- 32
2019-05-28 15:00:00 30.2 11 Noroeste 23 Noroeste 0 -- -- 34
2019-05-28 14:00:00 29 6 Noroeste 22 Noroeste 0 -- -- 37
2019-05-28 13:00:00 28.2 8 Noroeste 19 Oeste 0 -- -- 38
2019-05-28 12:00:00 26.8 5 Oeste 17 Noroeste 0 -- -- 41
2019-05-28 11:00:00 25.3 5 Oeste 12 Noroeste 0 -- -- 43
2019-05-28 10:00:00 23.1 3 Oeste 8 Norte 0 -- -- 46
2019-05-28 09:00:00 21.3 3 Noroeste 7 Noroeste 0 -- -- 48
2019-05-28 08:00:00 19.7 5 Noroeste 10 Norte 0 -- -- 49
2019-05-28 07:00:00 19.6 6 Norte 14 Noroeste 0 -- -- 46
2019-05-28 06:00:00 20.8 7 Noroeste 17 Norte 0 -- -- 46
2019-05-28 05:00:00 20.9 6 Noroeste 22 Noroeste 0 -- -- 43
2019-05-28 04:00:00 21.6 10 Noroeste 30 Noroeste 0 -- -- 42
2019-05-28 03:00:00 22.1 15 Noroeste 33 Oeste 0 -- -- 39
2019-05-28 02:00:00 22.8 14 Oeste 35 Oeste 0 -- -- 38
2019-05-28 01:00:00 23.4 19 Oeste 42 Oeste 0 -- -- 36
2019-05-28 00:00:00 24 23 Oeste 37 Oeste 0 -- -- 36
2019-05-27 23:00:00 25.4 21 Oeste 38 Oeste 0 -- -- 35
2019-05-27 22:00:00 26.1 18 Oeste 28 Oeste 0 -- -- 32
2019-05-27 21:00:00 27.8 12 Oeste 23 Oeste 0 -- -- 30
2019-05-27 20:00:00 29.9 12 Oeste 24 Sudoeste 0 -- -- 29
2019-05-27 19:00:00 30.4 12 Oeste 23 Oeste 0 -- -- 29
2019-05-27 18:00:00 29.9 12 Noroeste 25 Noroeste 0 -- -- 29
2019-05-27 17:00:00 30.6 9 Oeste 24 Noroeste 0 -- -- 29
2019-05-27 16:00:00 29.8 3 Sudoeste 22 Norte 0 -- -- 29
2019-05-27 15:00:00 29.1 4 Oeste 22 Noroeste 0 -- -- 31
2019-05-27 14:00:00 27.8 12 Noroeste 21 Oeste 0 -- -- 32
2019-05-27 13:00:00 27.1 9 Noroeste 18 Noroeste 0 -- -- 34
2019-05-27 12:00:00 25.4 6 Noroeste 12 Noroeste 0 -- -- 40
2019-05-27 11:00:00 23.6 8 Noroeste 15 Oeste 0 -- -- 43
2019-05-27 10:00:00 21.7 4 Sudeste 10 Sudeste 0 -- -- 46
2019-05-27 09:00:00 19.2 0 Calma 10 Noroeste 0 -- -- 49
2019-05-27 08:00:00 18.4 5 Noroeste 8 Noroeste 0 -- -- 47
2019-05-27 07:00:00 17.7 3 Noroeste 6 Noroeste 0 -- -- 49
2019-05-27 06:00:00 17.7 5 Norte 14 Noroeste 0 -- -- 49
2019-05-27 05:00:00 18.2 4 Noroeste 15 Noroeste 0 -- -- 48
2019-05-27 04:00:00 18.6 8 Noroeste 21 Noroeste 0 -- -- 49
2019-05-27 03:00:00 19 10 Noroeste 22 Noroeste 0 -- -- 49
2019-05-27 02:00:00 19.7 9 Norte 22 Norte 0 -- -- 48
2019-05-27 01:00:00 20.5 6 Noroeste 21 Noroeste 0 -- -- 34
2019-05-27 00:00:00 22.2 4 Este 13 Sudeste 0 -- -- 31
2019-05-26 23:00:00 21.6 8 Sudeste 10 Sudeste 0 -- -- 32
2019-05-26 22:00:00 23.2 7 Nordeste 13 Nordeste 0 -- -- 31
2019-05-26 21:00:00 27.1 3 Nordeste 21 Nordeste 0 -- -- 30
2019-05-26 20:00:00 28.3 4 Nordeste 19 Nordeste 0 -- -- 30
2019-05-26 19:00:00 28.3 7 Noroeste 23 Noroeste 0 -- -- 31
2019-05-26 18:00:00 28.5 7 Norte 24 Nordeste 0 -- -- 31
2019-05-26 17:00:00 28.1 8 Nordeste 27 Noroeste 0 -- -- 32
2019-05-26 16:00:00 26.8 5 Noroeste 24 Norte 0 -- -- 35
2019-05-26 15:00:00 25.7 9 Noroeste 29 Oeste 0 -- -- 38
2019-05-26 14:00:00 25.1 3 Noroeste 20 Noroeste 0 -- -- 39
2019-05-26 13:00:00 24 6 Noroeste 17 Oeste 0 -- -- 43
2019-05-26 12:00:00 22.8 9 Oeste 16 Noroeste 0 -- -- 48
2019-05-26 11:00:00 21.6 3 Oeste 10 Oeste 0 -- -- 51
2019-05-26 10:00:00 19.8 0 Calma 10 Noroeste 0 -- -- 54
2019-05-26 09:00:00 17.8 5 Noroeste 12 Norte 0 -- -- 57
2019-05-26 08:00:00 16.7 6 Noroeste 14 Noroeste 0 -- -- 59
2019-05-26 07:00:00 16.2 5 Noroeste 12 Noroeste 0 -- -- 60
2019-05-26 06:00:00 16.4 3 Nordeste 13 Noroeste 0 -- -- 62
2019-05-26 05:00:00 16.2 8 Norte 16 Noroeste 0 -- -- 62
2019-05-26 04:00:00 16.3 11 Noroeste 17 Noroeste 0 -- -- 60
2019-05-26 03:00:00 17.8 6 Noroeste 18 Norte 0 -- -- 51
2019-05-26 02:00:00 18.2 4 Nordeste 18 Noroeste 0 -- -- 43
2019-05-26 01:00:00 19.5 2 Norte 14 Este 0 -- -- 37
2019-05-26 00:00:00 21 3 Este 12 Nordeste 0 -- -- 35
2019-05-25 23:00:00 21.4 4 Nordeste 7 Nordeste 0 -- -- 34
2019-05-25 22:00:00 22.3 3 Nordeste 12 Nordeste 0 -- -- 33
2019-05-25 21:00:00 24.9 5 Nordeste 17 Nordeste 0 -- -- 32
2019-05-25 20:00:00 26.5 6 Nordeste 20 Norte 0 -- -- 32
2019-05-25 19:00:00 26.7 3 Nordeste 22 Norte 0 -- -- 33
2019-05-25 18:00:00 26 8 Nordeste 27 Nordeste 0 -- -- 33
2019-05-25 17:00:00 26 8 Nordeste 27 Sudeste 0 -- -- 35
2019-05-25 16:00:00 25.2 6 Este 27 Este 0 -- -- 37
2019-05-25 15:00:00 24.8 4 Este 25 Nordeste 0 -- -- 37
2019-05-25 14:00:00 23.1 6 Nordeste 26 Norte 0 -- -- 39
2019-05-25 13:00:00 22.2 5 Este 28 Nordeste 0 -- -- 42
2019-05-25 12:00:00 20.9 4 Este 27 Este 0 -- -- 47
2019-05-25 11:00:00 19.7 7 Este 26 Nordeste 0 -- -- 52
2019-05-25 10:00:00 18 0 Calma 24 Sur 0 -- -- 57
2019-05-25 09:00:00 16.6 3 Este 17 Nordeste 0 -- -- 59
2019-05-25 08:00:00 15 0 Calma 9 Sudeste 0 -- -- 64
2019-05-25 07:00:00 15.1 2 Sudeste 17 Sudeste 0 -- -- 64
2019-05-25 06:00:00 15.5 5 Este 11 Nordeste 0 -- -- 63
2019-05-25 05:00:00 15.5 6 Este 10 Sudeste 0 -- -- 60
2019-05-25 04:00:00 17 3 Sudeste 15 Nordeste 0 -- -- 53
2019-05-25 03:00:00 18.8 7 Nordeste 17 Nordeste 0 -- -- 47
2019-05-25 02:00:00 19.6 8 Nordeste 13 Nordeste 0 -- -- 46
2019-05-25 01:00:00 20.3 7 Nordeste 19 Nordeste 0 -- -- 46
2019-05-25 00:00:00 21.3 6 Nordeste 15 Este 0 -- -- 43
2019-05-24 23:00:00 22.8 6 Norte 22 Nordeste 0 -- -- 38
2019-05-24 22:00:00 23.6 6 Norte 11 Norte 0 -- -- 35
2019-05-24 21:00:00 24.7 3 Norte 8 Noroeste 0 -- -- 34
2019-05-24 20:00:00 26.1 8 Sudeste 26 Noroeste 0 -- -- 32
2019-05-24 19:00:00 27.7 9 Noroeste 22 Oeste 0 -- -- 32
2019-05-24 18:00:00 27.7 8 Noroeste 23 Noroeste 0 -- -- 32
2019-05-24 17:00:00 26.5 13 Noroeste 22 Noroeste 0 -- -- 32
2019-05-24 16:00:00 25.7 3 Oeste 31 Noroeste 0 -- -- 35
2019-05-24 15:00:00 25.3 11 Noroeste 24 Sudoeste 0 -- -- 37
2019-05-24 14:00:00 24 10 Oeste 25 Oeste 0 -- -- 38
2019-05-24 13:00:00 23.9 13 Oeste 29 Oeste 0 -- -- 41
2019-05-24 12:00:00 22.6 8 Norte 17 Norte 0 -- -- 45
2019-05-24 11:00:00 21.2 8 Noroeste 12 Noroeste 0 -- -- 49
2019-05-24 10:00:00 19.1 4 Noroeste 14 Noroeste 0 -- -- 51
2019-05-24 09:00:00 17.7 5 Noroeste 13 Noroeste 0 -- -- 52
2019-05-24 08:00:00 17.1 4 Norte 12 Noroeste 0 -- -- 52
2019-05-24 07:00:00 17.1 6 Noroeste 14 Noroeste 0 -- -- 51
2019-05-24 06:00:00 17.8 9 Noroeste 22 Noroeste 0 -- -- 47
2019-05-24 05:00:00 18.1 10 Noroeste 17 Norte 0 -- -- 47
2019-05-24 04:00:00 18.9 10 Norte 22 Oeste 0 -- -- 45
2019-05-24 03:00:00 19.7 11 Noroeste 26 Oeste 0 -- -- 43
2019-05-24 02:00:00 20.6 15 Oeste 32 Oeste 0 -- -- 41
2019-05-24 01:00:00 21.2 14 Noroeste 30 Oeste 0 -- -- 37
2019-05-24 00:00:00 22.1 12 Oeste 35 Oeste 0 -- -- 33
2019-05-23 23:00:00 22.9 9 Noroeste 22 Oeste 0 -- -- 32
2019-05-23 22:00:00 24 8 Oeste 14 Oeste 0 -- -- 32
2019-05-23 21:00:00 25 7 Oeste 24 Oeste 0 -- -- 31
2019-05-23 20:00:00 26.6 12 Noroeste 26 Oeste 0 -- -- 29
2019-05-23 19:00:00 28.4 14 Noroeste 30 Oeste 0 -- -- 28
2019-05-23 18:00:00 29.5 11 Oeste 28 Noroeste 0 -- -- 28
2019-05-23 17:00:00 28.7 13 Oeste 39 Noroeste 0 -- -- 29
2019-05-23 16:00:00 28.2 16 Oeste 33 Oeste 0 -- -- 30
2019-05-23 15:00:00 27.8 11 Noroeste 30 Noroeste 0 -- -- 33
2019-05-23 14:00:00 27 11 Noroeste 26 Oeste 0 -- -- 35
2019-05-23 13:00:00 25.8 6 Oeste 15 Noroeste 0 -- -- 37
2019-05-23 12:00:00 24.1 7 Noroeste 15 Oeste 0 -- -- 38
2019-05-23 11:00:00 23.2 4 Oeste 10 Oeste 0 -- -- 39
2019-05-23 10:00:00 22.5 3 Noroeste 6 Noroeste 0 -- -- 39
2019-05-23 09:00:00 20.9 0 Calma 6 Nordeste 0 -- -- 40
2019-05-23 08:00:00 18.7 0 Calma 5 Sudeste 0 -- -- 43
2019-05-23 07:00:00 17.4 2 Nordeste 7 Norte 0 -- -- 46
2019-05-23 06:00:00 18.3 3 Noroeste 13 Oeste 0 -- -- 45
2019-05-23 05:00:00 19.7 5 Noroeste 21 Oeste 0 -- -- 44
2019-05-23 04:00:00 20.1 8 Oeste 27 Noroeste 0 -- -- 43
2019-05-23 03:00:00 20.3 14 Oeste 30 Oeste 0 -- -- 43
2019-05-23 02:00:00 20.7 15 Oeste 27 Oeste 0 -- -- 39
2019-05-23 01:00:00 19.4 14 Noroeste 32 Oeste 0 -- -- 41
2019-05-23 00:00:00 20.7 8 Noroeste 14 Norte 0 -- -- 39
2019-05-22 23:00:00 21.5 6 Noroeste 15 Sudoeste 0 -- -- 38
2019-05-22 22:00:00 22.7 9 Oeste 23 Sudoeste 0 -- -- 37
2019-05-22 21:00:00 24.4 14 Oeste 26 Oeste 0 -- -- 36
2019-05-22 20:00:00 25.5 16 Oeste 28 Oeste 0 -- -- 34
2019-05-22 19:00:00 27.1 11 Oeste 24 Oeste 0 -- -- 32
2019-05-22 18:00:00 26.6 7 Noroeste 17 Noroeste 0 -- -- 34
2019-05-22 17:00:00 26 5 Oeste 18 Noroeste 0 -- -- 34
2019-05-22 16:00:00 25.9 7 Sudoeste 22 Noroeste 0 -- -- 36
2019-05-22 15:00:00 26.2 6 Oeste 18 Noroeste 0 -- -- 36
2019-05-22 14:00:00 24.4 11 Noroeste 29 Noroeste 0 -- -- 39
2019-05-22 13:00:00 25.1 0 Calma 15 Este 0 -- -- 39
2019-05-22 12:00:00 23.7 2 Noroeste 18 Sur 0 -- -- 44
2019-05-22 11:00:00 20.8 5 Noroeste 10 Noroeste 0 -- -- 51
2019-05-22 10:00:00 18.7 3 Noroeste 7 Oeste 0 -- -- 55
2019-05-22 09:00:00 16.7 0 Calma 8 Norte 0 -- -- 58
2019-05-22 08:00:00 15.2 6 Nordeste 10 Nordeste 0 -- -- 60
2019-05-22 07:00:00 15.5 4 Norte 9 Norte 0 -- -- 56
2019-05-22 06:00:00 17.4 2 Noroeste 7 Noroeste 0 -- -- 52
2019-05-22 05:00:00 17.6 0 Calma 4 Nordeste 0 -- -- 51
2019-05-22 04:00:00 17.6 2 Nordeste 8 Oeste 0 -- -- 51
2019-05-22 03:00:00 16.2 6 Noroeste 17 Oeste 0 -- -- 53
2019-05-22 02:00:00 17 8 Noroeste 22 Noroeste 0 -- -- 53
2019-05-22 01:00:00 17.9 11 Noroeste 26 Noroeste 0 -- -- 51
2019-05-22 00:00:00 18 10 Noroeste 29 Oeste 0 -- -- 50
2019-05-21 23:00:00 19.7 15 Oeste 35 Oeste 0 -- -- 44
2019-05-21 22:00:00 20.6 7 Oeste 13 Oeste 0 -- -- 35
2019-05-21 21:00:00 22.8 10 Oeste 22 Noroeste 0 -- -- 32
2019-05-21 20:00:00 24.2 15 Oeste 26 Oeste 0 -- -- 30
2019-05-21 19:00:00 25.1 9 Noroeste 26 Oeste 0 -- -- 31
2019-05-21 18:00:00 25 15 Oeste 29 Noroeste 0 -- -- 32
2019-05-21 17:00:00 25 10 Oeste 28 Oeste 0 -- -- 33
2019-05-21 16:00:00 24.3 9 Oeste 28 Oeste 0 -- -- 34
2019-05-21 15:00:00 23.9 11 Oeste 25 Oeste 0 -- -- 35
2019-05-21 14:00:00 23.5 12 Oeste 23 Sudoeste 0 -- -- 35
2019-05-21 13:00:00 22.5 8 Oeste 23 Oeste 0 -- -- 40
2019-05-21 12:00:00 20.8 5 Sudoeste 16 Oeste 0 -- -- 42
2019-05-21 11:00:00 19.4 4 Noroeste 13 Oeste 0 -- -- 52
2019-05-21 10:00:00 17.4 3 Noroeste 8 Noroeste 0 -- -- 60
2019-05-21 09:00:00 14.8 4 Noroeste 10 Noroeste 0 -- -- 67
2019-05-21 08:00:00 13.8 7 Noroeste 14 Oeste 0 -- -- 68
2019-05-21 07:00:00 13.9 10 Noroeste 24 Noroeste 0 -- -- 65
2019-05-21 06:00:00 14.1 9 Noroeste 18 Norte 0 -- -- 60
2019-05-21 05:00:00 14.7 8 Noroeste 17 Noroeste 0 -- -- 56
2019-05-21 04:00:00 15.3 11 Noroeste 20 Noroeste 0 -- -- 52
2019-05-21 03:00:00 15.5 8 Noroeste 22 Oeste 0 -- -- 49
2019-05-21 02:00:00 15.9 9 Oeste 36 Oeste 0 -- -- 44
2019-05-21 01:00:00 16.8 19 Oeste 38 Oeste 0 -- -- 39
2019-05-21 00:00:00 17.4 21 Oeste 37 Oeste 0 -- -- 37
2019-05-20 23:00:00 18.5 19 Oeste 31 Oeste 0 -- -- 34
2019-05-20 22:00:00 19.5 12 Oeste 22 Oeste 0 -- -- 29
2019-05-20 21:00:00 21.6 11 Oeste 26 Oeste 0 -- -- 26
2019-05-20 20:00:00 23.5 11 Oeste 35 Oeste 0 -- -- 24
2019-05-20 19:00:00 23.6 17 Oeste 35 Noroeste 0 -- -- 26
2019-05-20 18:00:00 23.5 14 Oeste 31 Noroeste 0 -- -- 28
2019-05-20 17:00:00 22.7 17 Noroeste 36 Noroeste 0 -- -- 31
2019-05-20 16:00:00 23 16 Oeste 36 Oeste 0 -- -- 31
2019-05-20 15:00:00 22 15 Oeste 33 Oeste 0 -- -- 35
2019-05-20 14:00:00 21.2 12 Noroeste 28 Sudoeste 0 -- -- 39
2019-05-20 13:00:00 20.6 14 Oeste 24 Oeste 0 -- -- 42
2019-05-20 12:00:00 19.4 10 Oeste 24 Oeste 0 -- -- 49
2019-05-20 11:00:00 17.6 3 Oeste 10 Noroeste 0 -- -- 68
2019-05-20 10:00:00 15.8 3 Oeste 12 Oeste 0 -- -- 81
2019-05-20 09:00:00 14 4 Noroeste 12 Noroeste 0 -- -- 98
2019-05-20 08:00:00 12.7 5 Norte 10 Noroeste 0 -- -- 99
2019-05-20 07:00:00 12.8 4 Noroeste 11 Noroeste 0 -- -- 99
2019-05-20 06:00:00 12.9 4 Noroeste 18 Noroeste 0 -- -- 97
2019-05-20 05:00:00 13.3 9 Noroeste 17 Oeste 0 -- -- 96
2019-05-20 04:00:00 13.7 9 Noroeste 20 Oeste 0 -- -- 94
2019-05-20 03:00:00 14.2 12 Noroeste 19 Noroeste 0 -- -- 90
2019-05-20 02:00:00 14.3 12 Noroeste 30 Oeste 0 -- -- 86
2019-05-20 01:00:00 14.8 10 Noroeste 31 Oeste 0 -- -- 79
2019-05-20 00:00:00 15.1 13 Oeste 35 Oeste 0 -- -- 76
2019-05-19 23:00:00 15.9 16 Oeste 38 Sudoeste 0 -- -- 69
2019-05-19 22:00:00 17.2 16 Oeste 35 Oeste 0 -- -- 58
2019-05-19 21:00:00 18.3 19 Oeste 36 Oeste 0 -- -- 46
2019-05-19 20:00:00 19.6 17 Noroeste 36 Noroeste 0 -- -- 37
2019-05-19 19:00:00 21 19 Oeste 35 Oeste 0 -- -- 35
2019-05-19 18:00:00 21.2 14 Oeste 28 Oeste 0 -- -- 37
2019-05-19 17:00:00 21.3 14 Noroeste 28 Oeste 0 -- -- 37
2019-05-19 16:00:00 20.1 17 Oeste 28 Oeste 0 -- -- 40
2019-05-19 15:00:00 19.5 13 Noroeste 29 Oeste 0 -- -- 42
2019-05-19 14:00:00 18.3 14 Oeste 28 Noroeste 0 -- -- 44
2019-05-19 13:00:00 17.3 12 Oeste 26 Oeste 0 -- -- 49
2019-05-19 12:00:00 15.8 11 Oeste 21 Noroeste 0 -- -- 52
2019-05-19 11:00:00 14.6 9 Oeste 19 Oeste 0 -- -- 56
2019-05-19 10:00:00 13.3 9 Oeste 17 Noroeste 0 -- -- 61
2019-05-19 09:00:00 11.8 9 Noroeste 14 Noroeste 0 -- -- 65
2019-05-19 08:00:00 10.6 6 Noroeste 12 Noroeste 0 -- -- 64
2019-05-19 07:00:00 10.8 7 Noroeste 16 Noroeste 0 -- -- 62
2019-05-19 06:00:00 11.3 8 Noroeste 13 Noroeste 0 -- -- 60
2019-05-19 05:00:00 11.1 7 Noroeste 12 Noroeste 0 -- -- 58
2019-05-19 04:00:00 11.7 5 Noroeste 12 Noroeste 0 -- -- 52
2019-05-19 03:00:00 12.7 6 Noroeste 10 Noroeste 0 -- -- 47
2019-05-19 02:00:00 13.1 4 Noroeste 10 Oeste 0 -- -- 44
2019-05-19 01:00:00 13.9 3 Oeste 8 Noroeste 0 -- -- 41
2019-05-19 00:00:00 14.6 0 Calma 7 Noroeste 0 -- -- 39
2019-05-18 23:00:00 15 2 Noroeste 10 Norte 0 -- -- 38
2019-05-18 22:00:00 15.8 4 Oeste 18 Noroeste 0 -- -- 37
2019-05-18 21:00:00 17 10 Noroeste 33 Oeste 0 -- -- 34
2019-05-18 20:00:00 18.9 16 Noroeste 35 Noroeste 0 -- -- 31
2019-05-18 19:00:00 19.8 20 Noroeste 40 Oeste 0 -- -- 30
2019-05-18 18:00:00 19.4 21 Noroeste 43 Oeste 0 -- -- 30
2019-05-18 17:00:00 19.4 20 Noroeste 40 Noroeste 0 -- -- 31
2019-05-18 16:00:00 19.1 18 Noroeste 40 Noroeste 0 -- -- 34
2019-05-18 15:00:00 18.1 20 Oeste 36 Noroeste 0 -- -- 40
2019-05-18 14:00:00 17.1 17 Noroeste 34 Noroeste 0 -- -- 44
2019-05-18 13:00:00 15.8 13 Noroeste 31 Noroeste 0 -- -- 50
2019-05-18 12:00:00 14.7 13 Oeste 27 Oeste 0 -- -- 57
2019-05-18 11:00:00 13.7 15 Oeste 24 Oeste 0 -- -- 62
2019-05-18 10:00:00 12.2 13 Oeste 24 Oeste 0 -- -- 66
2019-05-18 09:00:00 10.8 11 Noroeste 18 Noroeste 0 -- -- 69
2019-05-18 08:00:00 9.9 9 Noroeste 16 Noroeste 0 -- -- 71
2019-05-18 07:00:00 10 5 Noroeste 13 Norte 0 -- -- 73
2019-05-18 06:00:00 11.2 3 Noroeste 8 Noroeste 0 -- -- 66
2019-05-18 05:00:00 11.4 4 Noroeste 9 Oeste 0 -- -- 65
2019-05-18 04:00:00 12.1 2 Noroeste 10 Noroeste 0 -- -- 62
2019-05-18 03:00:00 12.5 5 Noroeste 13 Noroeste 0 -- -- 62
2019-05-18 02:00:00 13.1 7 Noroeste 26 Sudoeste 0 -- -- 62
2019-05-18 01:00:00 13.9 8 Oeste 26 Oeste 0 -- -- 47
2019-05-18 00:00:00 14.1 0 Calma 8 Noroeste 0 -- -- 41
2019-05-17 23:00:00 14.7 4 Noroeste 13 Noroeste 0 -- -- 40
2019-05-17 22:00:00 15 4 Noroeste 21 Oeste 0 -- -- 40
2019-05-17 21:00:00 17.5 13 Noroeste 29 Oeste 0 -- -- 35
2019-05-17 20:00:00 18.8 17 Noroeste 31 Oeste 0 -- -- 35
2019-05-17 19:00:00 20.1 16 Noroeste 32 Oeste 0 -- -- 35
2019-05-17 18:00:00 19.5 15 Noroeste 32 Oeste 0 -- -- 36
2019-05-17 17:00:00 19 16 Noroeste 35 Oeste 0 -- -- 36
2019-05-17 16:00:00 18 16 Noroeste 33 Noroeste 0 -- -- 40
2019-05-17 15:00:00 17.6 15 Noroeste 31 Noroeste 0 -- -- 41
2019-05-17 14:00:00 16.3 18 Noroeste 33 Oeste 0 -- -- 46
2019-05-17 13:00:00 16.1 15 Oeste 31 Noroeste 0 -- -- 51
2019-05-17 12:00:00 14.1 7 Noroeste 23 Noroeste 0 -- -- 57
2019-05-17 11:00:00 12.5 13 Noroeste 22 Noroeste 0 -- -- 61
2019-05-17 10:00:00 11.4 10 Noroeste 15 Noroeste 0 -- -- 70
2019-05-17 09:00:00 10.8 6 Oeste 15 Oeste 0 -- -- 77
2019-05-17 08:00:00 9.3 7 Noroeste 18 Noroeste 0 -- -- 82
2019-05-17 07:00:00 9.8 9 Noroeste 14 Noroeste 0 -- -- 81
2019-05-17 06:00:00 10.4 7 Noroeste 17 Oeste 0 -- -- 79
2019-05-17 05:00:00 11.3 6 Noroeste 18 Oeste 0 -- -- 74
2019-05-17 04:00:00 12.3 9 Oeste 18 Oeste 0 -- -- 69
2019-05-17 03:00:00 13.3 11 Oeste 25 Noroeste 0 -- -- 65
2019-05-17 02:00:00 14.9 12 Noroeste 31 Noroeste 0 -- -- 59
2019-05-17 01:00:00 17.4 15 Oeste 32 Oeste 0 -- -- 57
2019-05-17 00:00:00 18.7 21 Oeste 40 Oeste 0 -- -- 50